Time;durP1;ratioP1;P1;durP2;ratioP2;P2;SDS_P1;SDS_P2;PMS_P1;PMS_P2;Temp;Humidity;BMP_temperature;BMP_pressure;BME280_temperature;BME280_humidity;BME280_pressure;Samples;Min_cycle;Max_cycle;Signal;HPM_P1;HPM_P2
2022/07/17 00:01:19;;;;;;;0.00;0.00;;;11.00;99.90;10.40;100676;;;;586519;244;24090;-80
2022/07/17 00:03:47;;;;;;;0.10;0.10;;;11.00;99.90;10.30;100672;;;;565401;253;24121;-79
2022/07/17 00:06:15;;;;;;;0.00;0.00;;;11.00;99.90;10.40;100670;;;;586674;244;24046;-78
2022/07/17 00:08:42;;;;;;;0.00;0.00;;;11.00;99.90;10.40;100679;;;;565139;253;24163;-78
2022/07/17 00:11:10;;;;;;;0.00;0.00;;;11.00;99.90;10.40;100677;;;;586044;244;24054;-80
2022/07/17 00:13:38;;;;;;;0.07;0.07;;;11.00;99.90;10.40;100664;;;;565222;249;24129;-81
2022/07/17 00:16:06;;;;;;;0.00;0.00;;;11.00;99.90;10.40;100674;;;;577209;245;25108;-80
2022/07/17 00:18:34;;;;;;;0.00;0.00;;;11.00;99.90;10.40;100672;;;;571499;249;24136;-79
2022/07/17 00:21:02;;;;;;;0.00;0.00;;;11.00;99.90;10.40;100670;;;;567020;250;24092;-80
2022/07/17 00:23:30;;;;;;;0.00;0.00;;;11.00;99.90;10.40;100666;;;;557307;254;24153;-81
2022/07/17 00:25:58;;;;;;;0.00;0.00;;;11.10;99.90;10.40;100677;;;;575672;249;24085;-81
2022/07/17 00:28:26;;;;;;;0.00;0.00;;;11.10;99.90;10.40;100682;;;;557297;254;24160;-81
2022/07/17 00:30:54;;;;;;;0.00;0.00;;;11.00;99.90;10.40;100673;;;;575668;249;24178;-81
2022/07/17 00:33:22;;;;;;;0.00;0.00;;;11.10;99.90;10.40;100675;;;;557397;254;24144;-79
2022/07/17 00:35:51;;;;;;;0.00;0.00;;;11.10;99.90;10.50;100677;;;;575934;249;24137;-77
2022/07/17 00:38:20;;;;;;;0.00;0.00;;;11.10;99.90;10.50;100670;;;;557734;254;24119;-79
2022/07/17 00:40:48;;;;;;;0.00;0.00;;;11.10;99.90;10.50;100670;;;;567354;250;24088;-77
2022/07/17 00:43:16;;;;;;;0.00;0.00;;;11.10;99.90;10.50;100669;;;;567226;251;24183;-79
2022/07/17 00:45:43;;;;;;;0.00;0.00;;;11.20;99.90;10.60;100669;;;;576572;249;24071;-78
2022/07/17 00:48:11;;;;;;;0.00;0.00;;;11.20;99.90;10.60;100670;;;;558277;254;24126;-78
2022/07/17 00:50:39;;;;;;;0.00;0.00;;;11.20;99.90;10.60;100675;;;;567712;250;24078;-78
2022/07/17 00:53:10;;;;;;;0.00;0.00;;;11.20;99.90;10.60;100676;;;;566095;251;24126;-78
2022/07/17 00:55:35;;;;;;;0.00;0.00;;;11.20;99.90;10.60;100678;;;;565963;253;24147;-79
2022/07/17 00:58:06;;;;;;;0.20;0.20;;;11.20;99.90;10.60;100676;;;;576062;249;24144;-79
2022/07/17 01:00:31;;;;;;;0.00;0.00;;;11.30;99.90;10.70;100671;;;;557633;254;24149;-78
2022/07/17 01:03:03;;;;;;;0.00;0.00;;;11.30;99.90;10.70;100677;;;;567243;250;24089;-79
2022/07/17 01:05:28;;;;;;;0.00;0.00;;;11.30;99.90;10.70;100673;;;;556219;258;24142;-81
2022/07/17 01:07:55;;;;;;;0.00;0.00;;;11.30;99.90;10.70;100673;;;;567323;250;24081;-80
2022/07/17 01:10:23;;;;;;;0.00;0.00;;;11.40;99.90;10.80;100673;;;;557542;254;24143;-80
2022/07/17 01:12:51;;;;;;;0.00;0.00;;;11.40;99.90;10.80;100669;;;;575924;249;24111;-79
2022/07/17 01:15:19;;;;;;;0.00;0.00;;;11.40;99.90;10.80;100682;;;;557573;253;24173;-80
2022/07/17 01:17:47;;;;;;;0.00;0.00;;;11.40;99.90;10.80;100678;;;;570849;249;46144;-81
2022/07/17 01:20:15;;;;;;;0.00;0.00;;;11.50;99.90;10.90;100674;;;;557456;254;24113;-80
2022/07/17 01:22:46;;;;;;;0.00;0.00;;;11.50;99.90;11.00;100680;;;;575526;249;24116;-79
2022/07/17 01:25:17;;;;;;;0.00;0.00;;;11.60;99.90;11.00;100680;;;;557368;254;24121;-81
2022/07/17 01:27:45;;;;;;;0.00;0.00;;;11.70;99.90;11.10;100680;;;;565267;252;24129;-81
2022/07/17 01:30:10;;;;;;;0.00;0.00;;;11.70;99.90;11.10;100676;;;;564938;250;24098;-78
2022/07/17 01:32:38;;;;;;;0.00;0.00;;;11.70;99.90;11.20;100670;;;;557372;254;24126;-78
2022/07/17 01:35:06;;;;;;;0.00;0.00;;;11.80;99.90;11.20;100671;;;;575669;249;24192;-81
2022/07/17 01:37:34;;;;;;;0.00;0.00;;;11.80;99.90;11.20;100680;;;;557660;254;24119;-80
2022/07/17 01:40:06;;;;;;;0.00;0.00;;;11.90;99.90;11.30;100677;;;;567354;250;24111;-81
2022/07/17 01:42:34;;;;;;;0.00;0.00;;;11.90;99.90;11.30;100678;;;;561513;249;24089;-81
2022/07/17 01:45:00;;;;;;;0.00;0.00;;;11.90;99.90;11.30;100673;;;;556962;253;24098;-81
2022/07/17 01:47:28;;;;;;;0.00;0.00;;;11.90;99.90;11.30;100669;;;;574272;245;24071;-81
2022/07/17 01:49:56;;;;;;;0.00;0.00;;;11.90;99.90;11.30;100670;;;;573711;249;24091;-81
2022/07/17 01:52:24;;;;;;;0.00;0.00;;;11.90;99.90;11.30;100672;;;;577355;245;24062;-78
2022/07/17 01:54:52;;;;;;;0.00;0.00;;;11.90;99.90;11.30;100669;;;;568779;249;24168;-79
2022/07/17 01:57:20;;;;;;;0.00;0.00;;;11.90;99.90;11.30;100667;;;;587461;244;25104;-79
2022/07/17 01:59:51;;;;;;;0.00;0.00;;;11.90;99.90;11.30;100671;;;;577051;248;25145;-80
2022/07/17 02:02:16;;;;;;;0.00;0.00;;;11.90;99.90;11.30;100668;;;;577936;245;24084;-81
2022/07/17 02:04:47;;;;;;;0.10;0.10;;;11.90;99.90;11.30;100666;;;;574637;249;24149;-81
2022/07/17 02:07:12;;;;;;;0.00;0.00;;;11.90;99.90;11.20;100664;;;;585867;245;24100;-80
2022/07/17 02:09:39;;;;;;;0.10;0.10;;;11.80;99.90;11.20;100668;;;;574618;249;24127;-81
2022/07/17 02:12:07;;;;;;;0.00;0.00;;;11.80;99.90;11.10;100665;;;;577963;245;24067;-81
2022/07/17 02:14:35;;;;;;;0.00;0.00;;;11.80;99.90;11.10;100662;;;;557564;253;24134;-81
2022/07/17 02:17:03;;;;;;;0.00;0.00;;;11.70;99.90;11.00;100671;;;;577732;245;24051;-80
2022/07/17 02:19:31;;;;;;;0.00;0.00;;;11.70;99.90;11.00;100668;;;;575676;246;24119;-80
2022/07/17 02:21:59;;;;;;;0.00;0.00;;;11.60;99.90;11.00;100676;;;;584391;245;24062;-78
2022/07/17 02:24:27;;;;;;;0.67;0.67;;;11.60;99.90;10.90;100675;;;;581059;243;24090;-80
2022/07/17 02:26:57;;;;;;;0.00;0.00;;;11.60;99.90;10.90;100675;;;;579560;242;24052;-80
2022/07/17 02:29:23;;;;;;;0.00;0.00;;;11.50;99.90;10.90;100686;;;;580628;240;24120;-80
2022/07/17 02:31:51;;;;;;;0.00;0.00;;;11.50;99.90;10.80;100680;;;;577168;243;24030;-78
2022/07/17 02:34:20;;;;;;;0.00;0.00;;;11.40;99.90;10.80;100678;;;;567993;251;24067;-78
2022/07/17 02:36:49;;;;;;;0.00;0.00;;;11.40;99.90;10.80;100687;;;;563018;251;24095;-78
2022/07/17 02:39:17;;;;;;;0.00;0.00;;;11.40;99.90;10.70;100685;;;;575229;246;24059;-78
2022/07/17 02:41:45;;;;;;;0.00;0.00;;;11.40;99.90;10.70;100691;;;;575272;246;24064;-78
2022/07/17 02:44:12;;;;;;;0.03;0.03;;;11.30;99.90;10.70;100689;;;;575171;246;25127;-78
2022/07/17 02:46:40;;;;;;;0.00;0.00;;;11.30;99.90;10.70;100694;;;;574987;246;24067;-78
2022/07/17 02:49:08;;;;;;;0.10;0.10;;;11.30;99.90;10.70;100702;;;;574795;246;24122;-77
2022/07/17 02:51:36;;;;;;;0.00;0.00;;;11.30;99.90;10.70;100707;;;;575026;246;24091;-78
2022/07/17 02:54:04;;;;;;;0.00;0.00;;;11.30;99.90;10.70;100705;;;;574908;245;24064;-78
2022/07/17 02:56:33;;;;;;;0.00;0.00;;;11.30;99.90;10.70;100708;;;;574838;246;24060;-78
2022/07/17 02:59:01;;;;;;;0.00;0.00;;;11.30;99.90;10.70;100710;;;;575262;245;24106;-78
2022/07/17 03:01:30;;;;;;;0.00;0.00;;;11.30;99.90;10.70;100712;;;;575248;245;24049;-76
2022/07/17 03:03:58;;;;;;;0.00;0.00;;;11.30;99.90;10.70;100707;;;;575174;246;24169;-77
2022/07/17 03:06:26;;;;;;;0.00;0.00;;;11.40;99.90;10.70;100714;;;;576839;246;24058;-78
2022/07/17 03:08:54;;;;;;;0.00;0.00;;;11.30;99.90;10.70;100712;;;;576251;246;24083;-78
2022/07/17 03:11:22;;;;;;;0.20;0.20;;;11.30;99.90;10.70;100717;;;;571090;246;45882;-78
2022/07/17 03:13:50;;;;;;;0.00;0.00;;;11.30;99.90;10.70;100716;;;;576000;246;24070;-79
2022/07/17 03:16:18;;;;;;;0.00;0.00;;;11.30;99.90;10.70;100716;;;;575810;246;24074;-80
2022/07/17 03:18:45;;;;;;;0.00;0.00;;;11.30;99.90;10.70;100717;;;;575806;246;24093;-78
2022/07/17 03:21:14;;;;;;;0.00;0.00;;;11.40;99.90;10.80;100716;;;;575831;246;24098;-78
2022/07/17 03:23:42;;;;;;;0.00;0.00;;;11.40;99.90;10.80;100710;;;;575671;246;24060;-79
2022/07/17 03:26:10;;;;;;;0.00;0.00;;;11.40;99.90;10.80;100719;;;;575507;246;25105;-78
2022/07/17 03:28:38;;;;;;;0.00;0.00;;;11.50;99.90;10.80;100719;;;;575453;246;24091;-78
2022/07/17 03:31:06;;;;;;;0.00;0.00;;;11.50;99.90;10.90;100735;;;;575524;246;24098;-78
2022/07/17 03:33:34;;;;;;;0.00;0.00;;;11.60;99.90;11.10;100731;;;;575486;245;24103;-78
2022/07/17 03:36:02;;;;;;;0.00;0.00;;;11.80;99.90;12.00;100736;;;;575527;246;24068;-78
2022/07/17 03:38:30;;;;;;;0.00;0.00;;;12.50;99.90;13.10;100743;;;;575509;246;25090;-79
2022/07/17 03:40:57;;;;;;;0.00;0.00;;;13.50;99.90;14.10;100747;;;;575110;246;24053;-79
2022/07/17 03:43:25;;;;;;;0.00;0.00;;;14.60;99.90;14.90;100745;;;;574868;246;24083;-80
2022/07/17 03:45:54;;;;;;;0.00;0.00;;;16.40;99.90;15.70;100764;;;;575010;246;24126;-80
2022/07/17 03:48:22;;;;;;;0.00;0.00;;;16.30;99.90;16.40;100771;;;;574785;246;24059;-79
2022/07/17 03:50:50;;;;;;;0.00;0.00;;;17.10;99.90;16.90;100773;;;;574820;245;24106;-79
2022/07/17 03:53:19;;;;;;;0.00;0.00;;;18.30;99.90;17.70;100783;;;;574926;246;24122;-80
2022/07/17 03:55:47;;;;;;;0.00;0.00;;;18.80;99.90;18.10;100779;;;;574800;246;24061;-79
2022/07/17 03:58:15;;;;;;;0.00;0.00;;;18.80;99.90;18.70;100787;;;;575285;246;24051;-79
2022/07/17 04:00:43;;;;;;;0.00;0.00;;;19.40;99.90;19.20;100789;;;;575311;246;24051;-81
2022/07/17 04:03:11;;;;;;;0.00;0.00;;;20.00;99.90;19.80;100798;;;;575221;246;24060;-80
2022/07/17 04:05:39;;;;;;;0.10;0.10;;;20.70;99.90;20.30;100797;;;;575278;246;23066;-80
2022/07/17 04:08:07;;;;;;;0.03;0.03;;;21.10;99.90;20.80;100804;;;;575255;245;23059;-81
2022/07/17 04:10:36;;;;;;;0.73;0.73;;;21.90;99.90;21.70;100805;;;;575228;246;24083;-80
2022/07/17 04:13:03;;;;;;;0.00;0.00;;;22.60;99.90;22.10;100804;;;;570329;246;34927;-79
2022/07/17 04:15:52;;;;;;;0.00;0.00;;;23.70;99.90;22.70;100796;;;;575241;246;24062;-79
2022/07/17 04:18:19;;;;;;;0.00;0.00;;;24.40;99.90;23.30;100804;;;;576639;246;24103;-78
2022/07/17 04:20:46;;;;;;;0.00;0.00;;;24.40;99.90;23.80;100801;;;;584920;240;23070;-78
2022/07/17 04:23:17;;;;;;;0.00;0.00;;;25.00;99.90;24.40;100807;;;;572719;246;23102;-78
2022/07/17 04:25:42;;;;;;;0.00;0.00;;;25.60;99.90;24.80;100806;;;;575922;246;23142;-77
2022/07/17 04:28:10;;;;;;;0.00;0.00;;;26.00;99.90;25.30;100809;;;;575824;246;24087;-78
2022/07/17 04:30:38;;;;;;;0.00;0.00;;;26.50;99.90;25.70;100808;;;;584638;241;23060;-79
2022/07/17 04:33:06;;;;;;;0.00;0.00;;;27.00;99.90;26.10;100810;;;;575734;245;24115;-78
2022/07/17 04:35:34;;;;;;;0.00;0.00;;;27.40;99.90;26.70;100810;;;;575529;246;24072;-81
2022/07/17 04:38:04;;;;;;;0.00;0.00;;;28.50;99.90;27.20;100812;;;;575529;246;24089;-80
2022/07/17 04:40:31;;;;;;;0.00;0.00;;;29.00;99.90;27.60;100810;;;;583985;241;23089;-79
2022/07/17 04:42:59;;;;;;;0.00;0.00;;;28.90;99.90;27.70;100810;;;;571968;246;23066;-79
2022/07/17 04:45:27;;;;;;;0.00;0.00;;;29.10;99.90;28.20;100812;;;;575224;246;23085;-80
2022/07/17 04:47:55;;;;;;;0.00;0.00;;;29.60;99.90;28.50;100820;;;;575064;246;23101;-80
2022/07/17 04:50:26;;;;;;;0.28;0.28;;;29.90;99.90;28.90;100816;;;;583939;245;23108;-80
2022/07/17 04:52:51;;;;;;;0.00;0.00;;;30.30;96.80;29.30;100817;;;;574880;246;23078;-80
2022/07/17 04:55:19;;;;;;;0.00;0.00;;;30.60;96.00;29.40;100817;;;;574971;246;23079;-80
2022/07/17 04:57:47;;;;;;;0.00;0.00;;;30.80;95.40;29.70;100827;;;;574897;246;23062;-80
2022/07/17 05:00:16;;;;;;;0.00;0.00;;;31.50;88.70;30.10;100825;;;;574780;246;24053;-79
2022/07/17 05:02:44;;;;;;;0.00;0.00;;;31.70;84.80;30.40;100831;;;;571679;245;23088;-78
2022/07/17 05:05:13;;;;;;;0.00;0.00;;;32.30;84.20;30.90;100837;;;;574861;246;23066;-77
2022/07/17 05:07:41;;;;;;;0.00;0.00;;;32.20;84.00;31.50;100839;;;;574944;246;24077;-78
2022/07/17 05:10:09;;;;;;;0.00;0.00;;;32.70;77.00;32.10;100845;;;;574848;246;23059;-78
2022/07/17 05:12:36;;;;;;;0.00;0.00;;;33.30;77.00;32.60;100854;;;;574959;246;24080;-78
2022/07/17 05:15:04;;;;;;;0.00;0.00;;;33.80;74.10;33.10;100859;;;;583704;243;23074;-80
2022/07/17 05:17:33;;;;;;;2.40;0.93;;;34.60;72.10;33.50;100859;;;;574845;246;23127;-78
2022/07/17 05:20:01;;;;;;;2.50;0.98;;;34.60;72.20;33.70;100874;;;;574883;246;23074;-78
2022/07/17 05:22:29;;;;;;;3.40;0.90;;;34.90;73.00;34.20;100879;;;;574857;245;24053;-78
2022/07/17 05:24:57;;;;;;;3.42;1.17;;;35.30;68.90;34.70;100889;;;;574942;246;23095;-77
2022/07/17 05:27:25;;;;;;;1.20;0.93;;;35.80;68.20;34.80;100889;;;;575117;244;23139;-77
2022/07/17 05:29:53;;;;;;;2.42;0.95;;;36.00;62.60;35.00;100893;;;;576620;246;24135;-82
2022/07/17 05:32:21;;;;;;;1.30;0.80;;;36.20;62.50;35.20;100889;;;;575932;246;23100;-80
2022/07/17 05:34:49;;;;;;;1.25;0.70;;;36.40;64.50;35.70;100895;;;;575613;246;23065;-78
2022/07/17 05:37:19;;;;;;;1.30;0.77;;;36.70;64.10;36.10;100899;;;;575643;246;23093;-77
2022/07/17 05:39:44;;;;;;;3.62;0.80;;;37.10;61.40;36.20;100903;;;;575081;245;23081;-78
2022/07/17 05:42:13;;;;;;;1.10;1.00;;;37.60;60.30;36.60;100908;;;;575803;246;23103;-77
2022/07/17 05:44:42;;;;;;;1.35;0.80;;;37.80;59.10;36.90;100908;;;;575819;246;23080;-77
2022/07/17 05:47:10;;;;;;;1.45;0.95;;;37.70;59.10;37.10;100920;;;;575525;246;23135;-76
2022/07/17 05:49:38;;;;;;;2.25;0.82;;;37.90;56.50;37.00;100919;;;;575488;246;24137;-77
2022/07/17 05:52:06;;;;;;;1.15;1.00;;;37.60;56.20;36.50;100929;;;;575083;246;23062;-77
2022/07/17 05:54:34;;;;;;;2.22;0.98;;;37.60;56.20;36.10;100939;;;;575245;246;23054;-78
2022/07/17 05:57:02;;;;;;;3.65;0.80;;;37.20;55.80;36.00;100933;;;;575046;246;24085;-77
2022/07/17 05:59:30;;;;;;;1.27;0.90;;;36.90;56.20;36.50;100937;;;;575221;246;23082;-77
2022/07/17 06:01:58;;;;;;;4.78;1.00;;;37.30;57.50;37.30;100935;;;;575183;246;24134;-78
2022/07/17 06:04:26;;;;;;;2.92;0.88;;;37.90;56.10;37.50;100948;;;;574956;245;23075;-78
2022/07/17 06:06:54;;;;;;;3.58;0.90;;;38.20;53.10;37.40;100946;;;;575018;246;23065;-78
2022/07/17 06:09:22;;;;;;;2.65;1.00;;;38.20;51.30;37.80;100950;;;;574986;246;23067;-77
2022/07/17 06:11:50;;;;;;;0.85;0.70;;;38.50;53.00;38.90;100962;;;;575009;246;23051;-78
2022/07/17 06:14:17;;;;;;;2.15;0.82;;;39.40;51.20;39.60;100966;;;;574954;246;23114;-80
2022/07/17 06:16:46;;;;;;;2.17;1.05;;;40.30;47.90;39.70;100958;;;;574869;246;23118;-80
2022/07/17 06:19:14;;;;;;;1.10;1.00;;;40.20;47.80;40.20;100963;;;;574987;246;23066;-79
2022/07/17 06:21:42;;;;;;;1.23;1.10;;;40.70;47.00;40.50;100966;;;;569879;246;35001;-78
2022/07/17 06:24:11;;;;;;;1.27;0.98;;;41.60;45.30;40.90;100973;;;;574985;246;23055;-79
2022/07/17 06:26:39;;;;;;;2.90;1.42;;;41.50;45.20;41.40;100975;;;;574830;246;23108;-81
2022/07/17 06:29:06;;;;;;;1.87;1.35;;;42.10;44.80;41.00;100975;;;;575122;246;23055;-77
2022/07/17 06:31:34;;;;;;;2.40;1.30;;;41.80;44.00;40.20;100982;;;;574920;245;23075;-81
2022/07/17 06:34:02;;;;;;;1.45;1.27;;;41.20;44.30;38.00;100985;;;;574875;244;23071;-77
2022/07/17 06:36:30;;;;;;;3.15;1.42;;;39.50;44.50;36.10;100991;;;;575043;246;23062;-81
2022/07/17 06:38:58;;;;;;;1.25;1.12;;;37.60;47.40;35.30;100987;;;;575002;244;23054;-81
2022/07/17 06:41:26;;;;;;;1.95;1.02;;;36.30;50.20;36.30;100989;;;;576493;245;23101;-80
2022/07/17 06:43:55;;;;;;;2.83;1.02;;;37.60;48.80;37.50;100992;;;;576269;245;24079;-81
2022/07/17 06:46:23;;;;;;;3.15;1.00;;;38.70;47.20;38.80;100998;;;;576121;245;23082;-84
2022/07/17 06:48:51;;;;;;;1.20;1.10;;;38.70;47.10;39.70;100997;;;;575967;246;23052;-79
2022/07/17 06:51:19;;;;;;;1.77;0.80;;;39.80;45.40;40.10;100997;;;;575790;246;23098;-82
2022/07/17 06:53:47;;;;;;;1.40;1.30;;;40.50;44.40;40.80;100997;;;;575479;243;23088;-81
2022/07/17 06:56:15;;;;;;;1.42;0.95;;;41.10;44.00;41.20;101003;;;;575401;243;23083;-81
2022/07/17 06:58:44;;;;;;;1.37;1.05;;;41.80;42.70;41.40;101002;;;;575331;246;23052;-81
2022/07/17 07:01:12;;;;;;;2.60;0.95;;;42.00;43.40;41.70;101008;;;;575185;246;23072;-81
2022/07/17 07:03:41;;;;;;;1.50;0.90;;;42.50;43.50;42.30;101007;;;;575108;246;23089;-81
2022/07/17 07:06:09;;;;;;;3.00;1.08;;;42.50;42.70;42.30;101016;;;;575176;246;23082;-81
2022/07/17 07:08:40;;;;;;;0.95;0.70;;;42.60;42.10;41.90;101023;;;;571871;246;23061;-80
2022/07/17 07:11:05;;;;;;;1.20;0.98;;;42.40;41.20;41.50;101019;;;;575220;245;23090;-80
2022/07/17 07:13:33;;;;;;;1.15;0.80;;;42.00;41.80;41.60;101026;;;;571905;246;23082;-83
2022/07/17 07:16:02;;;;;;;1.08;0.90;;;41.90;42.60;41.70;101021;;;;574921;246;23071;-81
2022/07/17 07:18:29;;;;;;;0.52;0.52;;;42.00;42.10;41.70;101028;;;;574907;246;23106;-82
2022/07/17 07:20:57;;;;;;;1.05;0.90;;;42.00;41.80;41.90;101032;;;;574817;246;23062;-81
2022/07/17 07:23:25;;;;;;;1.65;1.08;;;42.00;40.60;41.60;101043;;;;574990;245;23091;-82
2022/07/17 07:25:54;;;;;;;0.80;0.80;;;42.10;40.70;41.90;101040;;;;574946;245;23070;-81
2022/07/17 07:28:22;;;;;;;1.00;0.90;;;42.10;40.70;42.50;101037;;;;574975;246;23060;-80
2022/07/17 07:30:50;;;;;;;3.87;0.95;;;42.60;40.30;42.80;101040;;;;583762;244;23131;-82
2022/07/17 07:33:18;;;;;;;2.20;0.90;;;43.00;39.80;42.30;101034;;;;574930;245;24076;-81
2022/07/17 07:35:46;;;;;;;1.30;0.85;;;42.70;39.70;42.20;101040;;;;575051;246;23067;-81
2022/07/17 07:38:13;;;;;;;2.83;0.90;;;42.50;40.10;42.70;101033;;;;574827;246;23122;-81
2022/07/17 07:40:41;;;;;;;1.02;0.90;;;42.80;41.00;43.20;101036;;;;574959;246;24099;-82
2022/07/17 07:43:09;;;;;;;0.82;0.80;;;43.30;39.60;43.60;101046;;;;575256;246;23108;-82
2022/07/17 07:45:37;;;;;;;2.35;1.00;;;43.80;39.20;43.20;101041;;;;575232;246;23047;-82
2022/07/17 07:48:05;;;;;;;0.77;0.77;;;43.60;38.50;43.50;101045;;;;575211;246;23067;-80
2022/07/17 07:50:34;;;;;;;2.12;0.85;;;44.00;38.00;43.80;101047;;;;575454;244;23058;-80
2022/07/17 07:53:02;;;;;;;1.00;0.80;;;44.00;37.90;43.90;101046;;;;576677;246;23106;-80
2022/07/17 07:55:33;;;;;;;1.65;1.17;;;44.10;37.60;44.10;101049;;;;575855;246;23113;-81
2022/07/17 07:58:04;;;;;;;1.87;1.08;;;44.40;37.80;44.50;101054;;;;575638;245;23157;-81
2022/07/17 08:00:31;;;;;;;1.80;0.95;;;44.70;37.70;44.70;101052;;;;572471;245;23057;-81
2022/07/17 08:02:59;;;;;;;3.05;1.20;;;45.00;36.70;44.80;101065;;;;575763;245;23147;-81
2022/07/17 08:05:27;;;;;;;1.65;1.27;;;45.20;36.90;44.90;101063;;;;566068;250;23135;-81
2022/07/17 08:07:55;;;;;;;1.17;0.80;;;45.20;36.40;44.10;101063;;;;576040;248;23128;-81
2022/07/17 08:10:23;;;;;;;4.78;1.25;;;44.70;36.20;43.70;101067;;;;555668;253;23152;-81
2022/07/17 08:12:51;;;;;;;1.77;1.12;;;44.20;37.20;43.50;101068;;;;567161;250;24178;-80
2022/07/17 08:15:19;;;;;;;1.65;1.08;;;44.10;37.00;42.40;101062;;;;555690;258;23195;-80
2022/07/17 08:17:47;;;;;;;1.23;1.00;;;43.20;37.70;42.60;101068;;;;572382;245;23091;-82
2022/07/17 08:20:19;;;;;;;1.23;1.12;;;43.10;38.10;43.40;101074;;;;556952;253;23144;-82
2022/07/17 08:22:46;;;;;;;0.90;0.90;;;43.60;37.80;42.00;101082;;;;575239;245;23067;-82
2022/07/17 08:25:11;;;;;;;2.45;0.90;;;42.80;36.90;41.60;101075;;;;556893;254;25200;-81
2022/07/17 08:27:39;;;;;;;0.90;0.90;;;42.10;37.90;41.20;101079;;;;577535;245;23056;-80
2022/07/17 08:30:07;;;;;;;2.45;1.00;;;41.70;37.20;41.50;101083;;;;556855;254;23243;-81
2022/07/17 08:32:39;;;;;;;1.80;1.05;;;41.70;37.10;42.20;101088;;;;586526;245;24098;-82
2022/07/17 08:35:03;;;;;;;1.80;0.70;;;42.20;37.10;42.60;101084;;;;557199;254;23124;-82
2022/07/17 08:37:32;;;;;;;1.50;1.20;;;43.40;36.90;43.30;101083;;;;577105;245;23084;-82
2022/07/17 08:40:00;;;;;;;2.00;0.90;;;44.40;36.40;44.30;101085;;;;564115;253;23167;-82
2022/07/17 08:42:31;;;;;;;2.75;1.50;;;44.50;35.50;44.00;101085;;;;577244;245;24104;-81
2022/07/17 08:44:58;;;;;;;1.65;1.10;;;44.50;36.70;44.10;101083;;;;557596;254;24179;-81
2022/07/17 08:47:29;;;;;;;1.83;1.17;;;44.50;35.90;44.20;101084;;;;572615;245;35022;-82
2022/07/17 08:49:54;;;;;;;4.78;1.40;;;44.80;37.00;43.60;101082;;;;552576;254;35437;-83
2022/07/17 08:52:22;;;;;;;2.13;1.13;;;44.50;36.00;41.80;101089;;;;572656;245;35038;-81
2022/07/17 08:54:49;;;;;;;3.50;2.60;;;43.20;36.70;39.50;101096;;;;557730;253;23122;-82
2022/07/17 08:57:17;;;;;;;0.90;0.90;;;41.10;37.70;38.50;101090;;;;575844;246;23104;-81
2022/07/17 08:59:45;;;;;;;1.65;1.00;;;39.70;39.20;39.00;101090;;;;547348;259;23114;-81
2022/07/17 09:02:13;;;;;;;1.75;1.15;;;39.50;39.70;38.70;101085;;;;572074;241;23042;-81
2022/07/17 09:04:41;;;;;;;1.05;1.00;;;39.40;38.90;38.60;101071;;;;570722;249;23106;-81
2022/07/17 09:07:09;;;;;;;4.62;1.10;;;39.20;39.60;39.90;101071;;;;579779;243;23107;-82
2022/07/17 09:09:38;;;;;;;3.58;1.33;;;40.60;39.20;39.90;101074;;;;573293;241;35056;-82
2022/07/17 09:12:06;;;;;;;2.22;1.20;;;40.60;39.20;37.60;101079;;;;589872;240;23041;-81
2022/07/17 09:14:39;;;;;;;1.25;1.17;;;39.20;39.60;35.10;101088;;;;578024;243;24099;-80
2022/07/17 09:17:11;;;;;;;1.50;1.08;;;36.90;42.00;35.50;101085;;;;555084;258;23165;-80
2022/07/17 09:19:38;;;;;;;1.35;0.75;;;36.20;44.20;37.30;101087;;;;572600;242;23131;-78
2022/07/17 09:22:19;;;;;;;1.10;0.85;;;38.90;40.80;38.70;101078;;;;571958;243;23026;-81
2022/07/17 09:24:54;;;;;;;1.83;1.12;;;40.70;39.70;40.40;101075;;;;575327;245;23107;-81
2022/07/17 09:27:31;;;;;;;1.37;0.80;;;42.50;37.80;42.00;101072;;;;580011;246;24122;-81
2022/07/17 09:30:05;;;;;;;2.33;1.20;;;42.50;37.70;43.40;101076;;;;575732;241;35143;-80
2022/07/17 09:32:36;;;;;;;3.62;1.20;;;44.20;36.80;42.70;101082;;;;578492;243;23123;-80
2022/07/17 09:35:04;;;;;;;2.90;1.08;;;44.40;35.90;40.00;101088;;;;576484;245;23068;-80
2022/07/17 09:37:32;;;;;;;1.90;0.82;;;42.40;35.50;37.10;101091;;;;562449;254;23149;-79
2022/07/17 09:40:01;;;;;;;2.25;0.98;;;39.60;37.60;37.00;101087;;;;576538;243;24052;-80
2022/07/17 09:42:31;;;;;;;4.55;1.23;;;38.40;40.10;37.90;101092;;;;560997;251;23110;-80
2022/07/17 09:45:01;;;;;;;6.87;1.05;;;38.70;39.90;39.20;101089;;;;569664;250;24122;-80
2022/07/17 09:47:30;;;;;;;3.08;1.00;;;40.40;38.50;39.60;101074;;;;571749;246;23098;-79
2022/07/17 09:49:58;;;;;;;2.45;0.93;;;40.40;38.50;39.90;101091;;;;558159;254;24142;-80
2022/07/17 09:52:29;;;;;;;1.67;1.12;;;40.90;38.60;40.50;101091;;;;577476;245;23069;-81
2022/07/17 09:54:56;;;;;;;3.12;1.12;;;41.40;38.50;41.40;101091;;;;573901;250;23102;-80
2022/07/17 09:57:27;;;;;;;1.20;1.02;;;42.10;38.20;40.90;101091;;;;582532;242;23137;-80
2022/07/17 09:59:55;;;;;;;2.45;0.98;;;42.30;37.30;38.40;101089;;;;557313;254;23124;-79
2022/07/17 10:02:24;;;;;;;4.87;1.20;;;38.40;38.40;36.60;101082;;;;566667;250;23119;-80
2022/07/17 10:04:52;;;;;;;1.15;0.95;;;38.20;39.10;37.40;101084;;;;559542;246;23139;-79
2022/07/17 10:07:20;;;;;;;1.02;0.93;;;38.20;39.10;38.60;101074;;;;571321;246;23062;-80
2022/07/17 10:09:48;;;;;;;2.15;1.27;;;39.10;39.20;40.30;101088;;;;568474;250;23163;-81
2022/07/17 10:12:16;;;;;;;5.30;1.30;;;40.60;39.10;39.50;101103;;;;586276;242;23015;-80
2022/07/17 10:14:44;;;;;;;3.17;1.15;;;40.70;38.00;37.50;101091;;;;568039;249;23131;-80
2022/07/17 10:17:12;;;;;;;3.35;1.20;;;39.20;38.70;37.30;101091;;;;586903;244;23119;-79
2022/07/17 10:19:48;;;;;;;4.05;1.30;;;38.50;40.30;38.20;101094;;;;557506;253;23134;-79
2022/07/17 10:22:16;;;;;;;2.33;1.37;;;39.00;41.10;36.70;101095;;;;585491;244;23067;-80
2022/07/17 10:24:47;;;;;;;2.55;1.20;;;38.10;41.30;35.80;101108;;;;576174;244;23137;-79
2022/07/17 10:27:27;;;;;;;5.47;1.55;;;36.70;43.60;35.60;101109;;;;577406;245;23092;-78
2022/07/17 10:30:10;;;;;;;3.53;1.10;;;36.60;43.50;35.60;101095;;;;563193;251;23164;-79
2022/07/17 10:32:38;;;;;;;3.03;1.12;;;36.70;43.40;36.00;101100;;;;582639;241;23086;-81
2022/07/17 10:35:12;;;;;;;3.28;1.33;;;36.80;43.40;36.40;101096;;;;584974;240;23187;-81
2022/07/17 10:37:40;;;;;;;4.57;1.92;;;37.20;42.40;36.30;101100;;;;556064;254;23133;-79
2022/07/17 10:40:13;;;;;;;3.72;1.67;;;37.20;42.60;36.30;101101;;;;553434;249;23092;-80
2022/07/17 10:42:56;;;;;;;1.62;1.00;;;37.40;42.00;36.00;101092;;;;567335;249;23180;-79
2022/07/17 10:45:24;;;;;;;2.03;1.15;;;37.20;41.30;35.00;101095;;;;561984;254;23183;-80
2022/07/17 10:48:00;;;;;;;1.02;0.80;;;36.20;41.60;34.10;101094;;;;575862;243;23025;-80
2022/07/17 10:50:35;;;;;;;2.22;1.30;;;35.10;43.20;33.30;101103;;;;554420;251;23125;-79
2022/07/17 10:53:29;;;;;;;2.45;1.33;;;34.00;44.60;32.00;101088;;;;563869;249;24163;-79
2022/07/17 10:56:05;;;;;;;1.33;1.08;;;32.60;46.60;30.80;101088;;;;583650;240;23027;-79
2022/07/17 10:58:41;;;;;;;3.30;1.20;;;31.20;49.40;30.10;101102;;;;585424;241;23093;-79
2022/07/17 11:01:15;;;;;;;5.20;2.05;;;30.30;50.70;29.60;101104;;;;580266;243;23130;-79
2022/07/17 11:03:54;;;;;;;2.28;1.77;;;29.80;52.80;28.30;101114;;;;567180;251;23164;-80
2022/07/17 11:06:30;;;;;;;2.97;1.13;;;27.90;56.20;27.50;101112;;;;576307;243;23033;-79
2022/07/17 11:09:09;;;;;;;2.40;1.07;;;27.80;56.00;26.90;101103;;;;559947;251;23093;-79
2022/07/17 11:11:48;;;;;;;7.23;1.27;;;27.20;57.40;26.50;101107;;;;556325;253;24152;-78
2022/07/17 11:14:22;;;;;;;4.60;1.80;;;26.70;58.80;26.20;101102;;;;563974;243;24141;-79
2022/07/17 11:16:59;;;;;;;3.47;1.20;;;26.40;59.30;25.80;101107;;;;581635;242;23099;-79